Weather at Taiwan Taoyuan International Airport

Public forecast

Using degrees Celsius for public forecast. Weather courtesy of forecast.io.

Current aviation weather report (METAR) for Taiwan Taoyuan International Airport

Retrieved 2020/09/23 15:30 UTC (0 seconds ago):

RCTP 231530Z 07007KT 9999 FEW020 BKN080 27/22 Q1011 NOSIG RMK A2987

Aviation forecast (TAF) for Taiwan Taoyuan International Airport

Retrieved 2020/09/23 12:00 UTC (3 hours ago):

TAF RCTP 231100Z 2312/2418 02012KT 9999 FEW020 BECMG 2314/2316 08005KT FEW015 BKN032 TEMPO 2319/2324 13005KT FEW012 BKN020 BKN040 BECMG 2400/2402 02010KT TEMPO 2403/2408 25018KT 4000 SHRA SCT005 BKN008 FEW015TCU TEMPO 2408/2415 04015KT 5000 RA SCT006 BKN012 BKN040